sensor_id;sensor_type;location;lat;lon;timestamp;temperature;humidity
1063;DHT22;520;50.932;6.962;2023-03-31T00:02:04;14.00;98.30
1063;DHT22;520;50.932;6.962;2023-03-31T00:04:54;14.10;98.50
1063;DHT22;520;50.932;6.962;2023-03-31T00:07:58;14.10;98.80
1063;DHT22;520;50.932;6.962;2023-03-31T00:11:05;14.10;99.20
1063;DHT22;520;50.932;6.962;2023-03-31T00:17:15;14.00;99.80
1063;DHT22;520;50.932;6.962;2023-03-31T00:20:06;14.20;99.90
1063;DHT22;520;50.932;6.962;2023-03-31T00:23:19;14.00;99.90
1063;DHT22;520;50.932;6.962;2023-03-31T00:26:33;14.00;99.90
1063;DHT22;520;50.932;6.962;2023-03-31T00:29:21;14.00;99.90
1063;DHT22;520;50.932;6.962;2023-03-31T00:32:03;14.00;99.90
1063;DHT22;520;50.932;6.962;2023-03-31T00:35:01;13.80;99.90
1063;DHT22;520;50.932;6.962;2023-03-31T00:37:38;13.70;99.90
1063;DHT22;520;50.932;6.962;2023-03-31T00:40:25;13.90;99.90
1063;DHT22;520;50.932;6.962;2023-03-31T00:47:21;14.00;99.90
1063;DHT22;520;50.932;6.962;2023-03-31T00:50:25;14.10;99.90
1063;DHT22;520;50.932;6.962;2023-03-31T00:53:25;14.20;99.90
1063;DHT22;520;50.932;6.962;2023-03-31T00:56:21;13.90;99.90
1063;DHT22;520;50.932;6.962;2023-03-31T00:59:20;14.00;99.90
1063;DHT22;520;50.932;6.962;2023-03-31T01:02:07;14.10;99.90
1063;DHT22;520;50.932;6.962;2023-03-31T01:05:10;14.00;99.90
1063;DHT22;520;50.932;6.962;2023-03-31T01:07:53;14.00;99.90
1063;DHT22;520;50.932;6.962;2023-03-31T01:10:45;14.10;99.90
1063;DHT22;520;50.932;6.962;2023-03-31T01:13:41;14.00;99.90
1063;DHT22;520;50.932;6.962;2023-03-31T01:16:12;13.90;99.90
1063;DHT22;520;50.932;6.962;2023-03-31T01:18:52;13.90;99.90
1063;DHT22;520;50.932;6.962;2023-03-31T01:21:41;13.90;99.90
1063;DHT22;520;50.932;6.962;2023-03-31T01:34:52;13.90;99.90
1063;DHT22;520;50.932;6.962;2023-03-31T01:45:25;13.90;99.90
1063;DHT22;520;50.932;6.962;2023-03-31T01:52:10;13.90;99.90
1063;DHT22;520;50.932;6.962;2023-03-31T01:55:10;13.80;99.90
1063;DHT22;520;50.932;6.962;2023-03-31T01:58:12;13.90;99.90
1063;DHT22;520;50.932;6.962;2023-03-31T02:04:50;13.90;99.90
1063;DHT22;520;50.932;6.962;2023-03-31T02:11:24;13.80;99.90
1063;DHT22;520;50.932;6.962;2023-03-31T02:14:05;13.80;99.90
1063;DHT22;520;50.932;6.962;2023-03-31T02:17:06;13.70;99.90
1063;DHT22;520;50.932;6.962;2023-03-31T02:20:11;13.70;99.90
1063;DHT22;520;50.932;6.962;2023-03-31T02:23:29;13.70;99.90
1063;DHT22;520;50.932;6.962;2023-03-31T02:29:49;13.60;99.90
1063;DHT22;520;50.932;6.962;2023-03-31T02:33:01;13.70;99.90
1063;DHT22;520;50.932;6.962;2023-03-31T02:35:47;13.60;99.90
1063;DHT22;520;50.932;6.962;2023-03-31T02:38:36;13.70;99.90
1063;DHT22;520;50.932;6.962;2023-03-31T02:41:15;13.60;99.90
1063;DHT22;520;50.932;6.962;2023-03-31T02:44:24;13.50;99.90
1063;DHT22;520;50.932;6.962;2023-03-31T02:47:15;13.60;99.90
1063;DHT22;520;50.932;6.962;2023-03-31T02:50:04;13.60;99.90
1063;DHT22;520;50.932;6.962;2023-03-31T02:56:54;13.60;99.90
1063;DHT22;520;50.932;6.962;2023-03-31T03:12:36;13.40;99.90
1063;DHT22;520;50.932;6.962;2023-03-31T03:15:39;13.20;99.90
1063;DHT22;520;50.932;6.962;2023-03-31T03:18:25;13.50;99.90
1063;DHT22;520;50.932;6.962;2023-03-31T03:21:36;13.70;99.90
1063;DHT22;520;50.932;6.962;2023-03-31T03:24:53;13.50;99.90
1063;DHT22;520;50.932;6.962;2023-03-31T03:27:53;13.60;99.90
1063;DHT22;520;50.932;6.962;2023-03-31T03:31:03;13.90;99.90
1063;DHT22;520;50.932;6.962;2023-03-31T03:34:16;13.50;99.90
1063;DHT22;520;50.932;6.962;2023-03-31T03:37:07;13.50;99.90
1063;DHT22;520;50.932;6.962;2023-03-31T03:40:30;13.60;99.90
1063;DHT22;520;50.932;6.962;2023-03-31T03:43:12;13.50;99.90
1063;DHT22;520;50.932;6.962;2023-03-31T03:45:56;13.40;99.90
1063;DHT22;520;50.932;6.962;2023-03-31T03:48:47;13.40;99.90
1063;DHT22;520;50.932;6.962;2023-03-31T03:51:49;13.90;99.90
1063;DHT22;520;50.932;6.962;2023-03-31T03:54:51;13.50;99.90
1063;DHT22;520;50.932;6.962;2023-03-31T03:57:28;13.50;99.90
1063;DHT22;520;50.932;6.962;2023-03-31T04:00:46;13.50;99.90
1063;DHT22;520;50.932;6.962;2023-03-31T04:03:53;13.50;99.90
1063;DHT22;520;50.932;6.962;2023-03-31T04:06:43;13.40;99.90
1063;DHT22;520;50.932;6.962;2023-03-31T04:09:31;13.60;99.90
1063;DHT22;520;50.932;6.962;2023-03-31T04:12:19;13.60;99.90
1063;DHT22;520;50.932;6.962;2023-03-31T04:15:00;13.60;99.90
1063;DHT22;520;50.932;6.962;2023-03-31T04:18:02;13.60;99.90
1063;DHT22;520;50.932;6.962;2023-03-31T04:20:43;13.60;99.90
1063;DHT22;520;50.932;6.962;2023-03-31T04:23:37;13.50;99.90
1063;DHT22;520;50.932;6.962;2023-03-31T04:26:33;13.40;99.90
1063;DHT22;520;50.932;6.962;2023-03-31T04:29:37;13.50;99.90
1063;DHT22;520;50.932;6.962;2023-03-31T04:32:31;13.50;99.90
1063;DHT22;520;50.932;6.962;2023-03-31T04:35:53;13.40;99.90
1063;DHT22;520;50.932;6.962;2023-03-31T04:38:57;13.40;99.90
1063;DHT22;520;50.932;6.962;2023-03-31T04:42:15;13.30;99.90
1063;DHT22;520;50.932;6.962;2023-03-31T04:45:07;13.20;99.90
1063;DHT22;520;50.932;6.962;2023-03-31T04:48:14;13.20;99.90
1063;DHT22;520;50.932;6.962;2023-03-31T04:51:12;13.10;99.90
1063;DHT22;520;50.932;6.962;2023-03-31T04:54:27;13.20;99.90
1063;DHT22;520;50.932;6.962;2023-03-31T04:57:46;13.20;99.90
1063;DHT22;520;50.932;6.962;2023-03-31T05:01:04;13.10;99.90
1063;DHT22;520;50.932;6.962;2023-03-31T05:04:18;13.00;99.90
1063;DHT22;520;50.932;6.962;2023-03-31T05:08:03;13.00;99.90
1063;DHT22;520;50.932;6.962;2023-03-31T05:10:56;13.00;99.90
1063;DHT22;520;50.932;6.962;2023-03-31T05:21:22;13.00;99.90
1063;DHT22;520;50.932;6.962;2023-03-31T05:24:13;13.00;99.90
1063;DHT22;520;50.932;6.962;2023-03-31T05:27:06;12.90;99.90
1063;DHT22;520;50.932;6.962;2023-03-31T05:30:40;13.10;99.90
1063;DHT22;520;50.932;6.962;2023-03-31T05:33:47;13.20;99.90
1063;DHT22;520;50.932;6.962;2023-03-31T05:36:46;13.20;99.90
1063;DHT22;520;50.932;6.962;2023-03-31T05:39:39;13.30;99.90
1063;DHT22;520;50.932;6.962;2023-03-31T05:43:15;13.20;99.90
1063;DHT22;520;50.932;6.962;2023-03-31T05:46:08;13.30;99.90
1063;DHT22;520;50.932;6.962;2023-03-31T05:49:11;13.30;99.90
1063;DHT22;520;50.932;6.962;2023-03-31T05:51:56;13.30;99.90
1063;DHT22;520;50.932;6.962;2023-03-31T05:55:20;13.20;99.90
1063;DHT22;520;50.932;6.962;2023-03-31T05:57:59;13.40;99.70
1063;DHT22;520;50.932;6.962;2023-03-31T06:07:18;13.40;99.20
1063;DHT22;520;50.932;6.962;2023-03-31T06:10:29;13.40;99.00
1063;DHT22;520;50.932;6.962;2023-03-31T06:13:33;13.40;98.50
1063;DHT22;520;50.932;6.962;2023-03-31T06:17:22;13.30;98.50
1063;DHT22;520;50.932;6.962;2023-03-31T06:20:30;13.30;98.20
1063;DHT22;520;50.932;6.962;2023-03-31T06:30:26;13.30;97.00
1063;DHT22;520;50.932;6.962;2023-03-31T06:44:20;13.20;97.60
1063;DHT22;520;50.932;6.962;2023-03-31T06:47:54;13.30;97.90
1063;DHT22;520;50.932;6.962;2023-03-31T06:51:12;13.30;97.80
1063;DHT22;520;50.932;6.962;2023-03-31T06:54:50;13.00;98.20
1063;DHT22;520;50.932;6.962;2023-03-31T07:01:00;13.40;97.40
1063;DHT22;520;50.932;6.962;2023-03-31T07:03:55;13.50;97.40
1063;DHT22;520;50.932;6.962;2023-03-31T07:06:38;13.50;97.40
1063;DHT22;520;50.932;6.962;2023-03-31T07:09:46;14.10;96.90
1063;DHT22;520;50.932;6.962;2023-03-31T07:12:45;14.30;95.70
1063;DHT22;520;50.932;6.962;2023-03-31T07:15:55;14.20;95.50
1063;DHT22;520;50.932;6.962;2023-03-31T07:22:54;14.00;96.30
1063;DHT22;520;50.932;6.962;2023-03-31T07:26:20;14.00;95.90
1063;DHT22;520;50.932;6.962;2023-03-31T07:29:29;13.90;95.90
1063;DHT22;520;50.932;6.962;2023-03-31T07:32:30;13.90;96.00
1063;DHT22;520;50.932;6.962;2023-03-31T07:50:17;16.90;92.30
1063;DHT22;520;50.932;6.962;2023-03-31T07:53:28;17.50;90.10
1063;DHT22;520;50.932;6.962;2023-03-31T07:59:48;16.20;91.30
1063;DHT22;520;50.932;6.962;2023-03-31T08:02:23;16.00;92.10
1063;DHT22;520;50.932;6.962;2023-03-31T08:07:59;16.00;92.00
1063;DHT22;520;50.932;6.962;2023-03-31T08:10:57;15.70;92.60
1063;DHT22;520;50.932;6.962;2023-03-31T08:13:51;15.20;93.40
1063;DHT22;520;50.932;6.962;2023-03-31T08:16:37;15.10;94.30
1063;DHT22;520;50.932;6.962;2023-03-31T08:19:20;15.00;94.60
1063;DHT22;520;50.932;6.962;2023-03-31T08:22:14;14.90;94.80
1063;DHT22;520;50.932;6.962;2023-03-31T08:25:08;14.90;95.00
1063;DHT22;520;50.932;6.962;2023-03-31T08:27:59;14.70;94.90
1063;DHT22;520;50.932;6.962;2023-03-31T08:31:06;14.90;95.50
1063;DHT22;520;50.932;6.962;2023-03-31T08:34:23;15.30;94.90
1063;DHT22;520;50.932;6.962;2023-03-31T08:37:33;15.80;93.80
1063;DHT22;520;50.932;6.962;2023-03-31T08:40:25;15.80;93.50
1063;DHT22;520;50.932;6.962;2023-03-31T08:43:39;15.40;93.80
1063;DHT22;520;50.932;6.962;2023-03-31T08:46:43;15.50;93.80
1063;DHT22;520;50.932;6.962;2023-03-31T08:49:57;15.60;93.00
1063;DHT22;520;50.932;6.962;2023-03-31T08:56:46;16.00;92.50
1063;DHT22;520;50.932;6.962;2023-03-31T08:59:46;16.20;92.10
1063;DHT22;520;50.932;6.962;2023-03-31T09:02:57;16.20;92.40
1063;DHT22;520;50.932;6.962;2023-03-31T09:08:57;16.60;91.90
1063;DHT22;520;50.932;6.962;2023-03-31T09:11:44;16.70;91.30
1063;DHT22;520;50.932;6.962;2023-03-31T09:15:00;16.90;90.90
1063;DHT22;520;50.932;6.962;2023-03-31T09:21:53;17.00;90.80
1063;DHT22;520;50.932;6.962;2023-03-31T09:32:42;17.80;88.90
1063;DHT22;520;50.932;6.962;2023-03-31T09:35:51;17.90;87.50
1063;DHT22;520;50.932;6.962;2023-03-31T09:38:30;18.00;86.60
1063;DHT22;520;50.932;6.962;2023-03-31T09:45:20;16.70;89.00
1063;DHT22;520;50.932;6.962;2023-03-31T09:48:33;16.50;90.90
1063;DHT22;520;50.932;6.962;2023-03-31T09:51:44;15.90;91.10
1063;DHT22;520;50.932;6.962;2023-03-31T09:54:57;15.60;91.20
1063;DHT22;520;50.932;6.962;2023-03-31T09:57:46;16.30;91.10
1063;DHT22;520;50.932;6.962;2023-03-31T10:01:04;17.60;88.00
1063;DHT22;520;50.932;6.962;2023-03-31T10:04:08;18.70;79.80
1063;DHT22;520;50.932;6.962;2023-03-31T10:07:03;18.80;78.80
1063;DHT22;520;50.932;6.962;2023-03-31T10:09:56;18.30;79.50
1063;DHT22;520;50.932;6.962;2023-03-31T10:13:26;17.90;80.70
1063;DHT22;520;50.932;6.962;2023-03-31T10:16:43;17.30;83.10
1063;DHT22;520;50.932;6.962;2023-03-31T10:19:59;17.30;83.10
1063;DHT22;520;50.932;6.962;2023-03-31T10:26:36;17.20;83.30
1063;DHT22;520;50.932;6.962;2023-03-31T10:29:41;16.90;84.80
1063;DHT22;520;50.932;6.962;2023-03-31T10:32:53;16.70;85.50
1063;DHT22;520;50.932;6.962;2023-03-31T10:39:32;18.50;80.10
1063;DHT22;520;50.932;6.962;2023-03-31T10:46:57;20.00;75.20
1063;DHT22;520;50.932;6.962;2023-03-31T10:54:07;19.40;72.90
1063;DHT22;520;50.932;6.962;2023-03-31T11:01:25;19.10;73.50
1063;DHT22;520;50.932;6.962;2023-03-31T11:11:50;18.70;73.10
1063;DHT22;520;50.932;6.962;2023-03-31T11:44:01;16.70;82.30
1063;DHT22;520;50.932;6.962;2023-03-31T11:47:29;16.60;83.20
1063;DHT22;520;50.932;6.962;2023-03-31T11:50:49;16.70;84.00
1063;DHT22;520;50.932;6.962;2023-03-31T11:58:02;17.00;81.90
1063;DHT22;520;50.932;6.962;2023-03-31T12:04:36;16.70;83.70
1063;DHT22;520;50.932;6.962;2023-03-31T12:08:16;16.70;83.00
1063;DHT22;520;50.932;6.962;2023-03-31T12:11:34;16.50;86.10
1063;DHT22;520;50.932;6.962;2023-03-31T12:17:47;16.20;90.80
1063;DHT22;520;50.932;6.962;2023-03-31T12:21:11;16.30;91.60
1063;DHT22;520;50.932;6.962;2023-03-31T12:24:14;16.50;90.80
1063;DHT22;520;50.932;6.962;2023-03-31T12:30:38;16.90;89.20
1063;DHT22;520;50.932;6.962;2023-03-31T12:51:00;16.90;84.80
1063;DHT22;520;50.932;6.962;2023-03-31T13:01:07;16.50;84.60
1063;DHT22;520;50.932;6.962;2023-03-31T13:10:57;16.60;87.50
1063;DHT22;520;50.932;6.962;2023-03-31T13:14:10;16.40;90.30
1063;DHT22;520;50.932;6.962;2023-03-31T13:21:02;16.00;91.60
1063;DHT22;520;50.932;6.962;2023-03-31T13:24:19;16.00;92.00
1063;DHT22;520;50.932;6.962;2023-03-31T13:34:58;16.50;91.90
1063;DHT22;520;50.932;6.962;2023-03-31T13:51:58;16.60;90.90
1063;DHT22;520;50.932;6.962;2023-03-31T14:15:15;16.90;89.00
1063;DHT22;520;50.932;6.962;2023-03-31T14:18:32;16.90;86.90
1063;DHT22;520;50.932;6.962;2023-03-31T14:39:25;16.40;82.00
1063;DHT22;520;50.932;6.962;2023-03-31T14:42:37;16.90;80.50
1063;DHT22;520;50.932;6.962;2023-03-31T14:46:07;16.80;79.80
1063;DHT22;520;50.932;6.962;2023-03-31T14:49:28;16.80;79.70
1063;DHT22;520;50.932;6.962;2023-03-31T14:53:12;17.20;78.20
1063;DHT22;520;50.932;6.962;2023-03-31T14:56:15;17.20;77.40
1063;DHT22;520;50.932;6.962;2023-03-31T14:59:27;17.20;76.90
1063;DHT22;520;50.932;6.962;2023-03-31T15:02:35;17.00;76.80
1063;DHT22;520;50.932;6.962;2023-03-31T15:05:45;16.70;77.40
1063;DHT22;520;50.932;6.962;2023-03-31T15:08:48;16.50;78.30
1063;DHT22;520;50.932;6.962;2023-03-31T15:12:04;16.80;77.20
1063;DHT22;520;50.932;6.962;2023-03-31T15:15:13;16.80;77.50
1063;DHT22;520;50.932;6.962;2023-03-31T15:18:16;16.60;77.80
1063;DHT22;520;50.932;6.962;2023-03-31T15:20:56;16.60;78.20
1063;DHT22;520;50.932;6.962;2023-03-31T15:24:32;16.50;78.80
1063;DHT22;520;50.932;6.962;2023-03-31T15:30:30;16.40;80.10
1063;DHT22;520;50.932;6.962;2023-03-31T15:33:41;16.50;79.70
1063;DHT22;520;50.932;6.962;2023-03-31T15:36:41;16.40;80.70
1063;DHT22;520;50.932;6.962;2023-03-31T15:39:28;16.30;81.20
1063;DHT22;520;50.932;6.962;2023-03-31T15:45:56;16.10;85.00
1063;DHT22;520;50.932;6.962;2023-03-31T15:48:55;16.00;85.60
1063;DHT22;520;50.932;6.962;2023-03-31T15:51:46;15.80;88.00
1063;DHT22;520;50.932;6.962;2023-03-31T15:54:39;15.80;87.70
1063;DHT22;520;50.932;6.962;2023-03-31T15:57:38;15.80;89.60
1063;DHT22;520;50.932;6.962;2023-03-31T16:00:47;15.70;90.20
1063;DHT22;520;50.932;6.962;2023-03-31T16:03:42;15.50;91.30
1063;DHT22;520;50.932;6.962;2023-03-31T16:10:14;15.40;93.00
1063;DHT22;520;50.932;6.962;2023-03-31T16:13:25;15.40;93.10
1063;DHT22;520;50.932;6.962;2023-03-31T16:16:29;15.30;93.10
1063;DHT22;520;50.932;6.962;2023-03-31T16:19:10;15.20;93.60
1063;DHT22;520;50.932;6.962;2023-03-31T16:25:22;15.00;94.20
1063;DHT22;520;50.932;6.962;2023-03-31T16:28:33;15.20;94.60
1063;DHT22;520;50.932;6.962;2023-03-31T16:32:23;15.00;94.70
1063;DHT22;520;50.932;6.962;2023-03-31T16:35:49;14.80;95.50
1063;DHT22;520;50.932;6.962;2023-03-31T16:39:26;14.90;96.00
1063;DHT22;520;50.932;6.962;2023-03-31T16:42:19;14.90;96.30
1063;DHT22;520;50.932;6.962;2023-03-31T16:45:42;14.80;95.90
1063;DHT22;520;50.932;6.962;2023-03-31T16:49:31;14.80;96.10
1063;DHT22;520;50.932;6.962;2023-03-31T16:52:51;14.60;96.40
1063;DHT22;520;50.932;6.962;2023-03-31T16:55:50;14.70;96.50
1063;DHT22;520;50.932;6.962;2023-03-31T16:59:03;14.80;96.30
1063;DHT22;520;50.932;6.962;2023-03-31T17:02:15;15.00;94.80
1063;DHT22;520;50.932;6.962;2023-03-31T17:12:54;14.90;94.10
1063;DHT22;520;50.932;6.962;2023-03-31T17:19:08;14.80;93.70
1063;DHT22;520;50.932;6.962;2023-03-31T17:24:13;14.60;94.20
1063;DHT22;520;50.932;6.962;2023-03-31T17:27:11;14.60;93.50
1063;DHT22;520;50.932;6.962;2023-03-31T17:30:03;14.90;93.00
1063;DHT22;520;50.932;6.962;2023-03-31T17:36:06;14.80;92.80
1063;DHT22;520;50.932;6.962;2023-03-31T17:42:33;14.40;93.20
1063;DHT22;520;50.932;6.962;2023-03-31T17:45:22;14.70;92.90
1063;DHT22;520;50.932;6.962;2023-03-31T17:48:13;14.50;92.90
1063;DHT22;520;50.932;6.962;2023-03-31T17:54:27;14.50;93.10
1063;DHT22;520;50.932;6.962;2023-03-31T18:01:04;14.50;93.10
1063;DHT22;520;50.932;6.962;2023-03-31T18:03:39;14.60;93.10
1063;DHT22;520;50.932;6.962;2023-03-31T18:06:43;14.50;92.70
1063;DHT22;520;50.932;6.962;2023-03-31T18:10:04;14.50;92.90
1063;DHT22;520;50.932;6.962;2023-03-31T18:16:20;14.60;92.50
1063;DHT22;520;50.932;6.962;2023-03-31T18:19:01;14.90;92.40
1063;DHT22;520;50.932;6.962;2023-03-31T18:22:03;14.70;92.20
1063;DHT22;520;50.932;6.962;2023-03-31T18:24:52;14.50;92.50
1063;DHT22;520;50.932;6.962;2023-03-31T18:27:45;14.50;92.60
1063;DHT22;520;50.932;6.962;2023-03-31T18:30:29;14.40;92.90
1063;DHT22;520;50.932;6.962;2023-03-31T18:33:32;14.60;92.60
1063;DHT22;520;50.932;6.962;2023-03-31T18:36:19;14.30;93.00
1063;DHT22;520;50.932;6.962;2023-03-31T18:39:04;14.20;93.70
1063;DHT22;520;50.932;6.962;2023-03-31T18:41:55;14.20;94.30
1063;DHT22;520;50.932;6.962;2023-03-31T18:45:29;14.10;94.70
1063;DHT22;520;50.932;6.962;2023-03-31T18:51:03;13.90;96.50
1063;DHT22;520;50.932;6.962;2023-03-31T18:54:33;13.80;97.00
1063;DHT22;520;50.932;6.962;2023-03-31T18:57:25;13.80;97.20
1063;DHT22;520;50.932;6.962;2023-03-31T19:00:28;13.80;97.50
1063;DHT22;520;50.932;6.962;2023-03-31T19:03:27;14.00;96.30
1063;DHT22;520;50.932;6.962;2023-03-31T19:09:41;14.00;96.50
1063;DHT22;520;50.932;6.962;2023-03-31T19:12:44;14.30;95.50
1063;DHT22;520;50.932;6.962;2023-03-31T19:15:55;14.20;95.30
1063;DHT22;520;50.932;6.962;2023-03-31T19:18:55;14.00;95.60
1063;DHT22;520;50.932;6.962;2023-03-31T19:21:26;13.80;96.10
1063;DHT22;520;50.932;6.962;2023-03-31T19:31:44;13.70;96.80
1063;DHT22;520;50.932;6.962;2023-03-31T19:34:45;13.70;97.30
1063;DHT22;520;50.932;6.962;2023-03-31T19:37:40;13.70;96.90
1063;DHT22;520;50.932;6.962;2023-03-31T19:43:40;13.90;96.50
1063;DHT22;520;50.932;6.962;2023-03-31T19:46:58;13.80;96.70
1063;DHT22;520;50.932;6.962;2023-03-31T19:53:37;13.40;97.60
1063;DHT22;520;50.932;6.962;2023-03-31T19:56:56;13.50;97.90
1063;DHT22;520;50.932;6.962;2023-03-31T19:59:48;13.60;97.50
1063;DHT22;520;50.932;6.962;2023-03-31T20:02:23;13.50;97.30
1063;DHT22;520;50.932;6.962;2023-03-31T20:04:57;13.40;97.40
1063;DHT22;520;50.932;6.962;2023-03-31T20:08:11;13.70;96.80
1063;DHT22;520;50.932;6.962;2023-03-31T20:10:51;13.80;96.40
1063;DHT22;520;50.932;6.962;2023-03-31T20:17:04;13.40;96.70
1063;DHT22;520;50.932;6.962;2023-03-31T20:20:08;13.60;96.40
1063;DHT22;520;50.932;6.962;2023-03-31T20:23:06;13.60;96.20
1063;DHT22;520;50.932;6.962;2023-03-31T20:25:50;13.40;96.60
1063;DHT22;520;50.932;6.962;2023-03-31T20:29:13;13.60;96.10
1063;DHT22;520;50.932;6.962;2023-03-31T20:32:06;13.60;96.20
1063;DHT22;520;50.932;6.962;2023-03-31T20:34:58;13.50;96.50
1063;DHT22;520;50.932;6.962;2023-03-31T20:38:02;13.50;96.70
1063;DHT22;520;50.932;6.962;2023-03-31T20:44:17;13.50;96.30
1063;DHT22;520;50.932;6.962;2023-03-31T20:47:14;13.50;97.00
1063;DHT22;520;50.932;6.962;2023-03-31T20:53:23;13.40;97.00
1063;DHT22;520;50.932;6.962;2023-03-31T20:56:34;13.50;97.20
1063;DHT22;520;50.932;6.962;2023-03-31T20:59:56;13.50;96.90
1063;DHT22;520;50.932;6.962;2023-03-31T21:02:41;13.40;96.90
1063;DHT22;520;50.932;6.962;2023-03-31T21:06:05;13.40;97.30
1063;DHT22;520;50.932;6.962;2023-03-31T21:09:31;13.50;96.90
1063;DHT22;520;50.932;6.962;2023-03-31T21:20:43;13.50;96.60
1063;DHT22;520;50.932;6.962;2023-03-31T21:24:12;13.30;96.90
1063;DHT22;520;50.932;6.962;2023-03-31T21:26:56;13.30;96.80
1063;DHT22;520;50.932;6.962;2023-03-31T21:29:40;13.20;96.90
1063;DHT22;520;50.932;6.962;2023-03-31T21:32:27;13.20;96.90
1063;DHT22;520;50.932;6.962;2023-03-31T21:35:04;13.20;97.20
1063;DHT22;520;50.932;6.962;2023-03-31T21:38:32;13.50;96.50
1063;DHT22;520;50.932;6.962;2023-03-31T21:41:28;13.40;96.60
1063;DHT22;520;50.932;6.962;2023-03-31T21:44:45;13.40;96.60
1063;DHT22;520;50.932;6.962;2023-03-31T21:51:30;13.30;96.50
1063;DHT22;520;50.932;6.962;2023-03-31T21:54:20;13.20;96.40
1063;DHT22;520;50.932;6.962;2023-03-31T21:56:59;13.10;96.80
1063;DHT22;520;50.932;6.962;2023-03-31T22:02:07;13.10;97.00
1063;DHT22;520;50.932;6.962;2023-03-31T22:05:24;13.30;96.30
1063;DHT22;520;50.932;6.962;2023-03-31T22:08:28;13.20;96.30
1063;DHT22;520;50.932;6.962;2023-03-31T22:14:07;13.40;96.00
1063;DHT22;520;50.932;6.962;2023-03-31T22:17:06;13.50;96.50
1063;DHT22;520;50.932;6.962;2023-03-31T22:23:15;13.30;96.20
1063;DHT22;520;50.932;6.962;2023-03-31T22:25:59;13.20;96.50
1063;DHT22;520;50.932;6.962;2023-03-31T22:28:56;13.10;97.30
1063;DHT22;520;50.932;6.962;2023-03-31T22:31:36;13.00;97.60
1063;DHT22;520;50.932;6.962;2023-03-31T22:37:32;13.00;97.90
1063;DHT22;520;50.932;6.962;2023-03-31T22:40:25;13.00;98.10
1063;DHT22;520;50.932;6.962;2023-03-31T22:46:17;13.10;97.60
1063;DHT22;520;50.932;6.962;2023-03-31T22:49:13;12.90;98.10
1063;DHT22;520;50.932;6.962;2023-03-31T22:52:01;12.90;98.10
1063;DHT22;520;50.932;6.962;2023-03-31T22:55:17;12.70;98.30
1063;DHT22;520;50.932;6.962;2023-03-31T22:58:20;13.10;97.90
1063;DHT22;520;50.932;6.962;2023-03-31T23:01:18;13.20;97.60
1063;DHT22;520;50.932;6.962;2023-03-31T23:04:22;13.10;97.60
1063;DHT22;520;50.932;6.962;2023-03-31T23:09:53;13.00;98.00
1063;DHT22;520;50.932;6.962;2023-03-31T23:12:26;12.90;98.30
1063;DHT22;520;50.932;6.962;2023-03-31T23:15:25;13.00;98.30
1063;DHT22;520;50.932;6.962;2023-03-31T23:18:28;13.00;98.40
1063;DHT22;520;50.932;6.962;2023-03-31T23:24:15;12.90;98.70
1063;DHT22;520;50.932;6.962;2023-03-31T23:27:09;12.90;98.90
1063;DHT22;520;50.932;6.962;2023-03-31T23:30:04;12.90;98.80
1063;DHT22;520;50.932;6.962;2023-03-31T23:36:29;12.80;98.70
1063;DHT22;520;50.932;6.962;2023-03-31T23:39:19;12.70;99.00
1063;DHT22;520;50.932;6.962;2023-03-31T23:45:10;12.90;98.90
1063;DHT22;520;50.932;6.962;2023-03-31T23:48:02;12.90;98.90
1063;DHT22;520;50.932;6.962;2023-03-31T23:50:39;12.90;98.70
1063;DHT22;520;50.932;6.962;2023-03-31T23:53:28;12.70;99.00
1063;DHT22;520;50.932;6.962;2023-03-31T23:56:29;12.90;98.50
1063;DHT22;520;50.932;6.962;2023-03-31T23:59:09;12.90;98.50
